Royse City, TX (75189)

2:27 AM CST on February 12, 2016 (GMT -0600)
McKamy Meadows | | Change Station
CLOSE
Current Station
Personal Weather Station
Location: Royse City, TX
Elevation: 553 ft
Nearby Weather Stations

Elev 553 ft 32.97 °N, 96.34 °W | Updated 10 seconds ago

Clear
Clear
49.5 °F
Feels Like 49 °F
N
3.5
Wind Variable Wind from North
Gusts 3.5 mph

Today
High -- | Low -- °F
--% Chance of Precip.
Yesterday
High -- | Low -- °F
Precip. -- in
Pressure 30.13 in
Visibility 10.0 miles
Clouds Clear
Windchill 49 °F
Dew Point 35 °F
Humidity 57%
Rainfall 0.00 in
Snow Depth Not available.
7:11 AM 6:07 PM
Waxing Crescent, 18% visible
METAR KF46 120815Z AUTO 08004KT 10SM CLR 09/03 A3013 RMK AO2 T00910027
Pressure 30.13 in
Visibility 10.0 miles
Clouds Clear
Windchill 49 °F
Dew Point 35 °F
Humidity 57%
Rainfall 0.00 in
Snow Depth Not available.
7:11 AM 6:07 PM
Waxing Crescent, 18% visible
METAR KF46 120815Z AUTO 08004KT 10SM CLR 09/03 A3013 RMK AO2 T00910027

10-Day Weather Forecast

Almanac

Astronomy

Feb. 12, 2016 Rise Set
Actual Time
Civil Twilight
Nautical Twilight
Astronomical Twilight
Moon
Length of Visible Light
Length of Day
Tomorrow will be .
, % of the Moon is Illuminated

Today's Extremes

State Highs State Lows

Community

WunderPhotos

Upload Photos

1,892,284 photos uploaded!

WunderBlog® & News

Nearby

Air Quality

  Air Quality AQ Index Pollutant
Not available.

Snow Depth

Station Depth Elevation

Earthquake Activity

City Distance Mag. Time & Date
Minimum magnitude displayed is 2.5.

Coastal Water Temperatures

Place Temperature

Stations

Nearby Weather Stations

Station Location Temp. Windchill Dew Point Humidity Wind Precip. Elev Updated Type
                   

Watches & Warnings

There are currently no watches in effect.